Detroit, Michigan
Traffic Map
Current Weather Conditions
Detroit, Michigan
Clear
Clear
26°
Feels Like: 27°
Wind Chill: 26° Ceiling: Unl
Heat Index: 27° Visibility: 15mi
Dew Point: 20° Wind: 0mph
Humidity: 69% Direction: ° ()
Pressure: 30.05in Gusts: 0mph
Raw Report DataCYQG 281300Z 00000KT 15SM SKC 26/20 A3005 RMK SLP173 DENSITY ALT 1800FT
Traffic Incident Summary
Active as of:
Severity:
Category:
InformationThere was an issue retrieving the traffic information for this location. Please try a different location or try again shortly.
Advertisements
Track Severe Weather on mobile